sensor_id;sensor_type;location;lat;lon;timestamp;temperature;humidity
26182;DHT22;13927;51.534;11.866;2022-09-12T00:00:05;14.50;99.90
26182;DHT22;13927;51.534;11.866;2022-09-12T00:02:31;14.50;99.90
26182;DHT22;13927;51.534;11.866;2022-09-12T00:04:56;14.50;99.90
26182;DHT22;13927;51.534;11.866;2022-09-12T00:07:22;14.50;99.90
26182;DHT22;13927;51.534;11.866;2022-09-12T00:09:48;14.50;99.90
26182;DHT22;13927;51.534;11.866;2022-09-12T00:12:14;14.50;99.90
26182;DHT22;13927;51.534;11.866;2022-09-12T00:14:40;14.50;99.90
26182;DHT22;13927;51.534;11.866;2022-09-12T00:17:05;14.50;99.90
26182;DHT22;13927;51.534;11.866;2022-09-12T00:19:31;14.50;99.90
26182;DHT22;13927;51.534;11.866;2022-09-12T00:21:57;14.50;99.90
26182;DHT22;13927;51.534;11.866;2022-09-12T00:24:22;14.50;99.90
26182;DHT22;13927;51.534;11.866;2022-09-12T00:26:48;14.50;99.90
26182;DHT22;13927;51.534;11.866;2022-09-12T00:29:19;14.50;99.90
26182;DHT22;13927;51.534;11.866;2022-09-12T00:31:46;14.40;99.90
26182;DHT22;13927;51.534;11.866;2022-09-12T00:34:12;14.40;99.90
26182;DHT22;13927;51.534;11.866;2022-09-12T00:36:38;14.40;99.90
26182;DHT22;13927;51.534;11.866;2022-09-12T00:39:05;14.40;99.90
26182;DHT22;13927;51.534;11.866;2022-09-12T00:41:35;14.40;99.90
26182;DHT22;13927;51.534;11.866;2022-09-12T00:47:05;14.30;99.90
26182;DHT22;13927;51.534;11.866;2022-09-12T00:50:08;14.30;99.90
26182;DHT22;13927;51.534;11.866;2022-09-12T00:52:45;14.30;99.90
26182;DHT22;13927;51.534;11.866;2022-09-12T00:55:21;14.30;99.90
26182;DHT22;13927;51.534;11.866;2022-09-12T01:00:17;14.20;99.90
26182;DHT22;13927;51.534;11.866;2022-09-12T01:02:48;14.20;99.90
26182;DHT22;13927;51.534;11.866;2022-09-12T01:05:16;14.20;99.90
26182;DHT22;13927;51.534;11.866;2022-09-12T01:07:42;14.20;99.90
26182;DHT22;13927;51.534;11.866;2022-09-12T01:10:12;14.20;99.90
26182;DHT22;13927;51.534;11.866;2022-09-12T01:12:40;14.20;99.90
26182;DHT22;13927;51.534;11.866;2022-09-12T01:15:07;14.20;99.90
26182;DHT22;13927;51.534;11.866;2022-09-12T01:17:42;14.20;99.90
26182;DHT22;13927;51.534;11.866;2022-09-12T01:20:56;14.20;99.90
26182;DHT22;13927;51.534;11.866;2022-09-12T01:23:59;14.20;99.90
26182;DHT22;13927;51.534;11.866;2022-09-12T01:27:26;14.10;99.90
26182;DHT22;13927;51.534;11.866;2022-09-12T01:30:22;14.10;99.90
26182;DHT22;13927;51.534;11.866;2022-09-12T01:39:02;14.10;99.90
26182;DHT22;13927;51.534;11.866;2022-09-12T01:41:54;14.10;99.90
26182;DHT22;13927;51.534;11.866;2022-09-12T01:44:38;14.10;99.90
26182;DHT22;13927;51.534;11.866;2022-09-12T01:50:06;14.00;99.90
26182;DHT22;13927;51.534;11.866;2022-09-12T01:52:52;14.00;99.90
26182;DHT22;13927;51.534;11.866;2022-09-12T01:58:27;14.00;99.90
26182;DHT22;13927;51.534;11.866;2022-09-12T02:00:58;14.00;99.90
26182;DHT22;13927;51.534;11.866;2022-09-12T02:03:31;14.00;99.90
26182;DHT22;13927;51.534;11.866;2022-09-12T02:06:09;14.00;99.90
26182;DHT22;13927;51.534;11.866;2022-09-12T02:08:44;14.00;99.90
26182;DHT22;13927;51.534;11.866;2022-09-12T02:11:12;14.00;99.90
26182;DHT22;13927;51.534;11.866;2022-09-12T02:13:45;14.00;99.90
26182;DHT22;13927;51.534;11.866;2022-09-12T02:16:22;14.10;99.90
26182;DHT22;13927;51.534;11.866;2022-09-12T02:18:56;14.10;99.90
26182;DHT22;13927;51.534;11.866;2022-09-12T02:21:25;14.10;99.90
26182;DHT22;13927;51.534;11.866;2022-09-12T02:23:56;14.10;99.90
26182;DHT22;13927;51.534;11.866;2022-09-12T02:26:34;14.00;99.90
26182;DHT22;13927;51.534;11.866;2022-09-12T02:29:03;14.00;99.90
26182;DHT22;13927;51.534;11.866;2022-09-12T02:31:44;14.00;99.90
26182;DHT22;13927;51.534;11.866;2022-09-12T02:37:22;13.90;99.90
26182;DHT22;13927;51.534;11.866;2022-09-12T02:39:54;13.80;99.90
26182;DHT22;13927;51.534;11.866;2022-09-12T02:42:22;13.70;99.90
26182;DHT22;13927;51.534;11.866;2022-09-12T02:44:49;13.70;99.90
26182;DHT22;13927;51.534;11.866;2022-09-12T02:47:31;13.60;99.90
26182;DHT22;13927;51.534;11.866;2022-09-12T02:50:00;13.60;99.90
26182;DHT22;13927;51.534;11.866;2022-09-12T02:52:26;13.60;99.90
26182;DHT22;13927;51.534;11.866;2022-09-12T02:54:53;13.60;99.90
26182;DHT22;13927;51.534;11.866;2022-09-12T02:57:20;13.50;99.90
26182;DHT22;13927;51.534;11.866;2022-09-12T02:59:47;13.40;99.90
26182;DHT22;13927;51.534;11.866;2022-09-12T03:02:41;13.40;99.90
26182;DHT22;13927;51.534;11.866;2022-09-12T03:08:46;13.30;99.90
26182;DHT22;13927;51.534;11.866;2022-09-12T03:11:42;13.20;99.90
26182;DHT22;13927;51.534;11.866;2022-09-12T03:17:52;13.10;99.90
26182;DHT22;13927;51.534;11.866;2022-09-12T03:20:28;13.00;99.90
26182;DHT22;13927;51.534;11.866;2022-09-12T03:23:19;12.90;99.90
26182;DHT22;13927;51.534;11.866;2022-09-12T03:26:00;12.80;99.90
26182;DHT22;13927;51.534;11.866;2022-09-12T03:28:32;12.70;99.90
26182;DHT22;13927;51.534;11.866;2022-09-12T03:30:59;12.70;99.90
26182;DHT22;13927;51.534;11.866;2022-09-12T03:33:25;12.70;99.90
26182;DHT22;13927;51.534;11.866;2022-09-12T03:35:51;12.70;99.90
26182;DHT22;13927;51.534;11.866;2022-09-12T03:38:18;12.70;99.90
26182;DHT22;13927;51.534;11.866;2022-09-12T03:40:44;12.70;99.90
26182;DHT22;13927;51.534;11.866;2022-09-12T03:43:11;12.70;99.90
26182;DHT22;13927;51.534;11.866;2022-09-12T03:45:37;12.70;99.90
26182;DHT22;13927;51.534;11.866;2022-09-12T03:48:04;12.60;99.90
26182;DHT22;13927;51.534;11.866;2022-09-12T03:50:30;12.60;99.90
26182;DHT22;13927;51.534;11.866;2022-09-12T03:52:58;12.60;99.90
26182;DHT22;13927;51.534;11.866;2022-09-12T03:55:24;12.60;99.90
26182;DHT22;13927;51.534;11.866;2022-09-12T03:57:52;12.50;99.90
26182;DHT22;13927;51.534;11.866;2022-09-12T04:00:18;12.50;99.90
26182;DHT22;13927;51.534;11.866;2022-09-12T04:02:44;12.50;99.90
26182;DHT22;13927;51.534;11.866;2022-09-12T04:05:10;12.40;99.90
26182;DHT22;13927;51.534;11.866;2022-09-12T04:07:36;12.40;99.90
26182;DHT22;13927;51.534;11.866;2022-09-12T04:10:01;12.40;99.90
26182;DHT22;13927;51.534;11.866;2022-09-12T04:12:28;12.40;99.90
26182;DHT22;13927;51.534;11.866;2022-09-12T04:14:54;12.30;99.90
26182;DHT22;13927;51.534;11.866;2022-09-12T04:17:20;12.30;99.90
26182;DHT22;13927;51.534;11.866;2022-09-12T04:19:46;12.30;99.90
26182;DHT22;13927;51.534;11.866;2022-09-12T04:22:12;12.30;99.90
26182;DHT22;13927;51.534;11.866;2022-09-12T04:24:37;12.20;99.90
26182;DHT22;13927;51.534;11.866;2022-09-12T04:27:03;12.20;99.90
26182;DHT22;13927;51.534;11.866;2022-09-12T04:29:29;12.10;99.90
26182;DHT22;13927;51.534;11.866;2022-09-12T04:31:55;12.10;99.90
26182;DHT22;13927;51.534;11.866;2022-09-12T04:34:21;12.00;99.90
26182;DHT22;13927;51.534;11.866;2022-09-12T04:36:47;12.00;99.90
26182;DHT22;13927;51.534;11.866;2022-09-12T04:39:13;11.90;99.90
26182;DHT22;13927;51.534;11.866;2022-09-12T04:41:39;11.90;99.90
26182;DHT22;13927;51.534;11.866;2022-09-12T04:44:11;11.80;99.90
26182;DHT22;13927;51.534;11.866;2022-09-12T04:46:40;11.80;99.90
26182;DHT22;13927;51.534;11.866;2022-09-12T04:49:09;11.80;99.90
26182;DHT22;13927;51.534;11.866;2022-09-12T04:51:38;11.80;99.90
26182;DHT22;13927;51.534;11.866;2022-09-12T04:54:14;11.80;99.90
26182;DHT22;13927;51.534;11.866;2022-09-12T04:56:43;11.70;99.90
26182;DHT22;13927;51.534;11.866;2022-09-12T04:59:12;11.60;99.90
26182;DHT22;13927;51.534;11.866;2022-09-12T05:01:38;11.60;99.90
26182;DHT22;13927;51.534;11.866;2022-09-12T05:04:04;11.60;99.90
26182;DHT22;13927;51.534;11.866;2022-09-12T05:06:32;11.60;99.90
26182;DHT22;13927;51.534;11.866;2022-09-12T05:09:00;11.60;99.90
26182;DHT22;13927;51.534;11.866;2022-09-12T05:11:29;11.70;99.90
26182;DHT22;13927;51.534;11.866;2022-09-12T05:13:56;11.70;99.90
26182;DHT22;13927;51.534;11.866;2022-09-12T05:16:25;11.70;99.90
26182;DHT22;13927;51.534;11.866;2022-09-12T05:18:52;11.80;99.90
26182;DHT22;13927;51.534;11.866;2022-09-12T05:21:20;11.80;99.90
26182;DHT22;13927;51.534;11.866;2022-09-12T05:23:50;11.80;99.90
26182;DHT22;13927;51.534;11.866;2022-09-12T05:26:17;11.90;99.90
26182;DHT22;13927;51.534;11.866;2022-09-12T05:28:45;11.90;99.90
26182;DHT22;13927;51.534;11.866;2022-09-12T05:31:16;12.00;99.90
26182;DHT22;13927;51.534;11.866;2022-09-12T05:33:45;11.90;99.90
26182;DHT22;13927;51.534;11.866;2022-09-12T05:36:15;11.90;99.90
26182;DHT22;13927;51.534;11.866;2022-09-12T05:38:43;11.90;99.90
26182;DHT22;13927;51.534;11.866;2022-09-12T05:41:12;12.00;99.90
26182;DHT22;13927;51.534;11.866;2022-09-12T05:43:41;12.00;99.90
26182;DHT22;13927;51.534;11.866;2022-09-12T05:46:10;12.10;99.90
26182;DHT22;13927;51.534;11.866;2022-09-12T05:48:38;12.30;99.90
26182;DHT22;13927;51.534;11.866;2022-09-12T05:51:17;12.30;99.90
26182;DHT22;13927;51.534;11.866;2022-09-12T05:53:47;12.50;99.90
26182;DHT22;13927;51.534;11.866;2022-09-12T05:56:18;12.50;99.90
26182;DHT22;13927;51.534;11.866;2022-09-12T05:58:46;12.60;99.90
26182;DHT22;13927;51.534;11.866;2022-09-12T06:01:17;12.70;99.90
26182;DHT22;13927;51.534;11.866;2022-09-12T06:03:44;12.90;99.90
26182;DHT22;13927;51.534;11.866;2022-09-12T06:06:14;13.00;99.90
26182;DHT22;13927;51.534;11.866;2022-09-12T06:08:46;13.20;99.90
26182;DHT22;13927;51.534;11.866;2022-09-12T06:11:16;13.30;99.90
26182;DHT22;13927;51.534;11.866;2022-09-12T06:13:45;13.50;99.90
26182;DHT22;13927;51.534;11.866;2022-09-12T06:16:20;13.70;99.90
26182;DHT22;13927;51.534;11.866;2022-09-12T06:18:49;13.80;99.90
26182;DHT22;13927;51.534;11.866;2022-09-12T06:21:16;14.00;99.90
26182;DHT22;13927;51.534;11.866;2022-09-12T06:23:42;14.20;99.90
26182;DHT22;13927;51.534;11.866;2022-09-12T06:26:11;14.30;99.90
26182;DHT22;13927;51.534;11.866;2022-09-12T06:28:40;14.50;99.90
26182;DHT22;13927;51.534;11.866;2022-09-12T06:31:14;14.60;99.90
26182;DHT22;13927;51.534;11.866;2022-09-12T06:37:22;15.00;99.90
26182;DHT22;13927;51.534;11.866;2022-09-12T06:39:47;15.10;99.90
26182;DHT22;13927;51.534;11.866;2022-09-12T06:42:13;15.30;99.90
26182;DHT22;13927;51.534;11.866;2022-09-12T06:44:39;15.40;99.90
26182;DHT22;13927;51.534;11.866;2022-09-12T06:47:05;15.60;99.90
26182;DHT22;13927;51.534;11.866;2022-09-12T06:49:32;15.70;99.90
26182;DHT22;13927;51.534;11.866;2022-09-12T06:51:58;15.80;99.90
26182;DHT22;13927;51.534;11.866;2022-09-12T06:54:23;16.00;99.90
26182;DHT22;13927;51.534;11.866;2022-09-12T06:56:50;16.20;99.90
26182;DHT22;13927;51.534;11.866;2022-09-12T06:59:16;16.20;99.90
26182;DHT22;13927;51.534;11.866;2022-09-12T07:01:42;16.50;99.90
26182;DHT22;13927;51.534;11.866;2022-09-12T07:04:08;16.60;99.90
26182;DHT22;13927;51.534;11.866;2022-09-12T07:06:40;16.80;99.90
26182;DHT22;13927;51.534;11.866;2022-09-12T07:09:08;17.00;99.90
26182;DHT22;13927;51.534;11.866;2022-09-12T07:11:37;17.00;99.90
26182;DHT22;13927;51.534;11.866;2022-09-12T07:14:05;17.00;99.90
26182;DHT22;13927;51.534;11.866;2022-09-12T07:16:33;17.10;99.90
26182;DHT22;13927;51.534;11.866;2022-09-12T07:19:01;17.10;99.90
26182;DHT22;13927;51.534;11.866;2022-09-12T07:21:28;17.10;99.90
26182;DHT22;13927;51.534;11.866;2022-09-12T07:23:54;17.40;99.90
26182;DHT22;13927;51.534;11.866;2022-09-12T07:26:22;17.70;99.90
26182;DHT22;13927;51.534;11.866;2022-09-12T07:28:55;17.90;99.90
26182;DHT22;13927;51.534;11.866;2022-09-12T07:31:25;18.20;99.90
26182;DHT22;13927;51.534;11.866;2022-09-12T07:33:52;18.50;99.90
26182;DHT22;13927;51.534;11.866;2022-09-12T07:36:20;18.70;99.90
26182;DHT22;13927;51.534;11.866;2022-09-12T07:38:47;19.00;99.90
26182;DHT22;13927;51.534;11.866;2022-09-12T07:41:52;19.20;99.90
26182;DHT22;13927;51.534;11.866;2022-09-12T07:44:19;19.50;99.90
26182;DHT22;13927;51.534;11.866;2022-09-12T07:46:46;19.80;99.90
26182;DHT22;13927;51.534;11.866;2022-09-12T07:49:12;20.10;99.90
26182;DHT22;13927;51.534;11.866;2022-09-12T07:51:38;20.30;99.90
26182;DHT22;13927;51.534;11.866;2022-09-12T07:54:21;20.60;99.90
26182;DHT22;13927;51.534;11.866;2022-09-12T07:56:47;20.90;99.90
26182;DHT22;13927;51.534;11.866;2022-09-12T07:59:13;21.00;99.90
26182;DHT22;13927;51.534;11.866;2022-09-12T08:01:39;21.10;99.90
26182;DHT22;13927;51.534;11.866;2022-09-12T08:17:35;22.10;99.90
26182;DHT22;13927;51.534;11.866;2022-09-12T08:20:01;22.30;99.90
26182;DHT22;13927;51.534;11.866;2022-09-12T08:22:29;22.20;99.90
26182;DHT22;13927;51.534;11.866;2022-09-12T08:27:24;22.60;99.90
26182;DHT22;13927;51.534;11.866;2022-09-12T08:29:50;22.70;99.90
26182;DHT22;13927;51.534;11.866;2022-09-12T08:32:16;22.70;99.90
26182;DHT22;13927;51.534;11.866;2022-09-12T08:34:41;22.60;99.90
26182;DHT22;13927;51.534;11.866;2022-09-12T08:37:07;22.70;99.90
26182;DHT22;13927;51.534;11.866;2022-09-12T08:39:45;22.80;99.90
26182;DHT22;13927;51.534;11.866;2022-09-12T08:42:22;22.80;99.90
26182;DHT22;13927;51.534;11.866;2022-09-12T08:45:32;22.80;99.90
26182;DHT22;13927;51.534;11.866;2022-09-12T08:48:17;22.90;99.90
26182;DHT22;13927;51.534;11.866;2022-09-12T08:50:43;23.00;99.90
26182;DHT22;13927;51.534;11.866;2022-09-12T08:53:15;22.90;99.90
26182;DHT22;13927;51.534;11.866;2022-09-12T08:55:52;23.10;99.90
26182;DHT22;13927;51.534;11.866;2022-09-12T08:58:27;23.30;99.90
26182;DHT22;13927;51.534;11.866;2022-09-12T09:01:14;23.40;99.90
26182;DHT22;13927;51.534;11.866;2022-09-12T09:04:32;23.60;99.90
26182;DHT22;13927;51.534;11.866;2022-09-12T09:10:16;23.80;99.90
26182;DHT22;13927;51.534;11.866;2022-09-12T09:15:49;24.50;99.90
26182;DHT22;13927;51.534;11.866;2022-09-12T09:18:31;25.00;99.90
26182;DHT22;13927;51.534;11.866;2022-09-12T09:21:03;25.50;99.90
26182;DHT22;13927;51.534;11.866;2022-09-12T09:23:45;26.10;99.90
26182;DHT22;13927;51.534;11.866;2022-09-12T09:26:58;26.50;99.90
26182;DHT22;13927;51.534;11.866;2022-09-12T09:29:35;26.60;99.90
26182;DHT22;13927;51.534;11.866;2022-09-12T09:32:26;26.30;99.90
26182;DHT22;13927;51.534;11.866;2022-09-12T09:34:55;26.10;99.90
26182;DHT22;13927;51.534;11.866;2022-09-12T09:37:52;26.20;99.90
26182;DHT22;13927;51.534;11.866;2022-09-12T09:40:40;26.20;99.90
26182;DHT22;13927;51.534;11.866;2022-09-12T09:43:21;25.90;99.90
26182;DHT22;13927;51.534;11.866;2022-09-12T09:45:49;25.70;99.90
26182;DHT22;13927;51.534;11.866;2022-09-12T09:48:22;25.10;99.90
26182;DHT22;13927;51.534;11.866;2022-09-12T09:50:52;24.70;99.90
26182;DHT22;13927;51.534;11.866;2022-09-12T10:01:36;24.30;99.90
26182;DHT22;13927;51.534;11.866;2022-09-12T10:04:23;24.10;99.90
26182;DHT22;13927;51.534;11.866;2022-09-12T10:06:55;24.00;99.90
26182;DHT22;13927;51.534;11.866;2022-09-12T10:09:26;23.70;99.90
26182;DHT22;13927;51.534;11.866;2022-09-12T10:11:55;23.60;99.90
26182;DHT22;13927;51.534;11.866;2022-09-12T10:14:32;23.60;99.90
26182;DHT22;13927;51.534;11.866;2022-09-12T10:17:41;23.90;99.90
26182;DHT22;13927;51.534;11.866;2022-09-12T10:26:00;24.70;99.90
26182;DHT22;13927;51.534;11.866;2022-09-12T10:28:35;24.60;99.90
26182;DHT22;13927;51.534;11.866;2022-09-12T10:31:04;24.40;99.90
26182;DHT22;13927;51.534;11.866;2022-09-12T10:33:44;24.60;99.90
26182;DHT22;13927;51.534;11.866;2022-09-12T10:36:20;25.20;99.90
26182;DHT22;13927;51.534;11.866;2022-09-12T10:38:56;25.60;99.90
26182;DHT22;13927;51.534;11.866;2022-09-12T10:41:25;26.00;99.90
26182;DHT22;13927;51.534;11.866;2022-09-12T10:43:51;26.40;99.90
26182;DHT22;13927;51.534;11.866;2022-09-12T10:48:50;26.20;99.90
26182;DHT22;13927;51.534;11.866;2022-09-12T10:51:29;25.80;99.90
26182;DHT22;13927;51.534;11.866;2022-09-12T10:53:57;25.50;99.90
26182;DHT22;13927;51.534;11.866;2022-09-12T10:56:29;25.40;99.90
26182;DHT22;13927;51.534;11.866;2022-09-12T11:02:00;25.10;99.90
26182;DHT22;13927;51.534;11.866;2022-09-12T11:08:02;24.90;99.90
26182;DHT22;13927;51.534;11.866;2022-09-12T11:14:49;24.60;99.90
26182;DHT22;13927;51.534;11.866;2022-09-12T11:27:32;24.20;99.90
26182;DHT22;13927;51.534;11.866;2022-09-12T11:30:12;24.50;99.90
26182;DHT22;13927;51.534;11.866;2022-09-12T11:33:02;25.10;99.90
26182;DHT22;13927;51.534;11.866;2022-09-12T11:35:50;25.80;99.90
26182;DHT22;13927;51.534;11.866;2022-09-12T11:38:38;26.40;99.90
26182;DHT22;13927;51.534;11.866;2022-09-12T11:41:27;26.70;99.90
26182;DHT22;13927;51.534;11.866;2022-09-12T11:44:05;26.90;99.90
26182;DHT22;13927;51.534;11.866;2022-09-12T11:46:44;27.30;99.90
26182;DHT22;13927;51.534;11.866;2022-09-12T11:51:46;27.60;99.30
26182;DHT22;13927;51.534;11.866;2022-09-12T11:54:43;27.70;96.80
26182;DHT22;13927;51.534;11.866;2022-09-12T12:00:21;27.50;98.30
26182;DHT22;13927;51.534;11.866;2022-09-12T12:03:19;27.80;99.10
26182;DHT22;13927;51.534;11.866;2022-09-12T12:06:05;28.20;96.00
26182;DHT22;13927;51.534;11.866;2022-09-12T12:08:38;28.20;94.20
26182;DHT22;13927;51.534;11.866;2022-09-12T12:11:06;28.50;94.90
26182;DHT22;13927;51.534;11.866;2022-09-12T12:13:52;28.60;92.70
26182;DHT22;13927;51.534;11.866;2022-09-12T12:16:37;28.90;92.90
26182;DHT22;13927;51.534;11.866;2022-09-12T12:21:44;29.50;92.80
26182;DHT22;13927;51.534;11.866;2022-09-12T12:35:42;29.70;90.20
26182;DHT22;13927;51.534;11.866;2022-09-12T12:38:31;29.50;90.70
26182;DHT22;13927;51.534;11.866;2022-09-12T12:43:46;28.80;92.80
26182;DHT22;13927;51.534;11.866;2022-09-12T12:46:17;28.70;91.50
26182;DHT22;13927;51.534;11.866;2022-09-12T12:48:51;28.70;91.90
26182;DHT22;13927;51.534;11.866;2022-09-12T12:57:36;28.10;92.70
26182;DHT22;13927;51.534;11.866;2022-09-12T13:03:01;28.30;91.10
26182;DHT22;13927;51.534;11.866;2022-09-12T13:05:54;28.30;92.20
26182;DHT22;13927;51.534;11.866;2022-09-12T13:08:32;28.40;92.10
26182;DHT22;13927;51.534;11.866;2022-09-12T13:11:13;27.80;91.40
26182;DHT22;13927;51.534;11.866;2022-09-12T13:14:00;27.60;93.10
26182;DHT22;13927;51.534;11.866;2022-09-12T13:19:27;27.30;92.00
26182;DHT22;13927;51.534;11.866;2022-09-12T13:22:05;27.20;92.90
26182;DHT22;13927;51.534;11.866;2022-09-12T13:24:33;26.90;93.90
26182;DHT22;13927;51.534;11.866;2022-09-12T13:26:59;26.80;93.70
26182;DHT22;13927;51.534;11.866;2022-09-12T13:29:27;26.70;94.60
26182;DHT22;13927;51.534;11.866;2022-09-12T13:32:02;26.60;93.70
26182;DHT22;13927;51.534;11.866;2022-09-12T13:34:34;26.60;93.60
26182;DHT22;13927;51.534;11.866;2022-09-12T13:37:38;26.60;93.70
26182;DHT22;13927;51.534;11.866;2022-09-12T13:43:14;26.50;96.50
26182;DHT22;13927;51.534;11.866;2022-09-12T13:45:41;26.50;97.20
26182;DHT22;13927;51.534;11.866;2022-09-12T13:48:17;26.60;94.40
26182;DHT22;13927;51.534;11.866;2022-09-12T13:50:52;26.70;94.90
26182;DHT22;13927;51.534;11.866;2022-09-12T13:53:23;26.80;93.30
26182;DHT22;13927;51.534;11.866;2022-09-12T13:55:57;27.00;92.90
26182;DHT22;13927;51.534;11.866;2022-09-12T13:58:29;27.10;94.10
26182;DHT22;13927;51.534;11.866;2022-09-12T14:01:05;26.90;94.10
26182;DHT22;13927;51.534;11.866;2022-09-12T14:03:37;26.90;93.30
26182;DHT22;13927;51.534;11.866;2022-09-12T14:06:23;26.80;93.90
26182;DHT22;13927;51.534;11.866;2022-09-12T14:08:50;26.80;94.00
26182;DHT22;13927;51.534;11.866;2022-09-12T14:11:25;26.80;94.20
26182;DHT22;13927;51.534;11.866;2022-09-12T14:13:53;26.70;94.70
26182;DHT22;13927;51.534;11.866;2022-09-12T14:16:20;26.80;92.70
26182;DHT22;13927;51.534;11.866;2022-09-12T14:18:48;26.70;93.50
26182;DHT22;13927;51.534;11.866;2022-09-12T14:21:36;26.70;93.00
26182;DHT22;13927;51.534;11.866;2022-09-12T14:24:04;26.50;93.70
26182;DHT22;13927;51.534;11.866;2022-09-12T14:26:37;26.50;93.70
26182;DHT22;13927;51.534;11.866;2022-09-12T14:29:06;26.40;93.80
26182;DHT22;13927;51.534;11.866;2022-09-12T14:31:37;26.40;93.90
26182;DHT22;13927;51.534;11.866;2022-09-12T14:34:13;26.40;94.50
26182;DHT22;13927;51.534;11.866;2022-09-12T14:36:52;26.20;93.50
26182;DHT22;13927;51.534;11.866;2022-09-12T14:42:10;25.90;95.20
26182;DHT22;13927;51.534;11.866;2022-09-12T14:45:14;25.90;95.40
26182;DHT22;13927;51.534;11.866;2022-09-12T14:47:48;25.80;95.20
26182;DHT22;13927;51.534;11.866;2022-09-12T14:50:17;25.50;97.00
26182;DHT22;13927;51.534;11.866;2022-09-12T14:52:44;25.40;97.50
26182;DHT22;13927;51.534;11.866;2022-09-12T14:55:26;25.20;97.80
26182;DHT22;13927;51.534;11.866;2022-09-12T14:58:21;25.10;98.00
26182;DHT22;13927;51.534;11.866;2022-09-12T15:01:01;24.90;98.10
26182;DHT22;13927;51.534;11.866;2022-09-12T15:03:36;24.80;98.80
26182;DHT22;13927;51.534;11.866;2022-09-12T15:06:30;24.70;98.70
26182;DHT22;13927;51.534;11.866;2022-09-12T15:09:07;24.70;99.90
26182;DHT22;13927;51.534;11.866;2022-09-12T15:11:36;24.70;99.90
26182;DHT22;13927;51.534;11.866;2022-09-12T15:14:20;24.50;99.90
26182;DHT22;13927;51.534;11.866;2022-09-12T15:16:46;24.40;99.90
26182;DHT22;13927;51.534;11.866;2022-09-12T15:19:12;24.30;99.90
26182;DHT22;13927;51.534;11.866;2022-09-12T15:21:38;24.10;99.90
26182;DHT22;13927;51.534;11.866;2022-09-12T15:24:04;24.00;99.90
26182;DHT22;13927;51.534;11.866;2022-09-12T15:26:30;23.90;99.90
26182;DHT22;13927;51.534;11.866;2022-09-12T15:28:56;24.00;99.90
26182;DHT22;13927;51.534;11.866;2022-09-12T15:31:23;24.00;99.90
26182;DHT22;13927;51.534;11.866;2022-09-12T15:33:55;23.90;99.90
26182;DHT22;13927;51.534;11.866;2022-09-12T15:36:22;23.80;99.90
26182;DHT22;13927;51.534;11.866;2022-09-12T15:38:53;23.60;99.90
26182;DHT22;13927;51.534;11.866;2022-09-12T15:41:30;23.60;99.90
26182;DHT22;13927;51.534;11.866;2022-09-12T15:43:57;23.50;99.90
26182;DHT22;13927;51.534;11.866;2022-09-12T15:46:23;23.60;99.90
26182;DHT22;13927;51.534;11.866;2022-09-12T15:48:49;23.60;99.90
26182;DHT22;13927;51.534;11.866;2022-09-12T15:51:17;23.60;99.90
26182;DHT22;13927;51.534;11.866;2022-09-12T15:53:44;23.50;99.90
26182;DHT22;13927;51.534;11.866;2022-09-12T15:56:17;23.40;99.90
26182;DHT22;13927;51.534;11.866;2022-09-12T15:58:59;23.40;99.90
26182;DHT22;13927;51.534;11.866;2022-09-12T16:01:26;23.40;99.90
26182;DHT22;13927;51.534;11.866;2022-09-12T16:03:52;23.50;99.90
26182;DHT22;13927;51.534;11.866;2022-09-12T16:06:18;23.60;99.90
26182;DHT22;13927;51.534;11.866;2022-09-12T16:08:44;23.60;99.90
26182;DHT22;13927;51.534;11.866;2022-09-12T16:11:23;23.50;99.90
26182;DHT22;13927;51.534;11.866;2022-09-12T16:13:51;23.50;99.90
26182;DHT22;13927;51.534;11.866;2022-09-12T16:16:19;23.40;99.90
26182;DHT22;13927;51.534;11.866;2022-09-12T16:18:45;23.40;99.90
26182;DHT22;13927;51.534;11.866;2022-09-12T16:21:11;23.40;99.90
26182;DHT22;13927;51.534;11.866;2022-09-12T16:23:36;23.40;99.90
26182;DHT22;13927;51.534;11.866;2022-09-12T16:26:04;23.30;99.90
26182;DHT22;13927;51.534;11.866;2022-09-12T16:28:31;23.20;99.90
26182;DHT22;13927;51.534;11.866;2022-09-12T16:31:00;23.20;99.90
26182;DHT22;13927;51.534;11.866;2022-09-12T16:33:27;23.10;99.90
26182;DHT22;13927;51.534;11.866;2022-09-12T16:36:06;23.10;99.90
26182;DHT22;13927;51.534;11.866;2022-09-12T16:38:39;23.00;99.90
26182;DHT22;13927;51.534;11.866;2022-09-12T16:41:09;22.90;99.90
26182;DHT22;13927;51.534;11.866;2022-09-12T16:43:35;22.80;99.90
26182;DHT22;13927;51.534;11.866;2022-09-12T16:46:07;22.80;99.90
26182;DHT22;13927;51.534;11.866;2022-09-12T16:48:44;22.70;99.90
26182;DHT22;13927;51.534;11.866;2022-09-12T16:51:15;22.60;99.90
26182;DHT22;13927;51.534;11.866;2022-09-12T16:53:41;22.50;99.90
26182;DHT22;13927;51.534;11.866;2022-09-12T16:56:12;22.50;99.90
26182;DHT22;13927;51.534;11.866;2022-09-12T16:58:41;22.30;99.90
26182;DHT22;13927;51.534;11.866;2022-09-12T17:01:11;22.20;99.90
26182;DHT22;13927;51.534;11.866;2022-09-12T17:03:38;22.10;99.90
26182;DHT22;13927;51.534;11.866;2022-09-12T17:06:07;21.90;99.90
26182;DHT22;13927;51.534;11.866;2022-09-12T17:08:42;21.80;99.90
26182;DHT22;13927;51.534;11.866;2022-09-12T17:11:12;21.80;99.90
26182;DHT22;13927;51.534;11.866;2022-09-12T17:13:39;21.60;99.90
26182;DHT22;13927;51.534;11.866;2022-09-12T17:16:08;21.50;99.90
26182;DHT22;13927;51.534;11.866;2022-09-12T17:18:35;21.40;99.90
26182;DHT22;13927;51.534;11.866;2022-09-12T17:21:04;21.30;99.90
26182;DHT22;13927;51.534;11.866;2022-09-12T17:23:30;21.20;99.90
26182;DHT22;13927;51.534;11.866;2022-09-12T17:25:57;21.10;99.90
26182;DHT22;13927;51.534;11.866;2022-09-12T17:28:23;21.00;99.90
26182;DHT22;13927;51.534;11.866;2022-09-12T17:31:00;20.90;99.90
26182;DHT22;13927;51.534;11.866;2022-09-12T17:33:28;20.70;99.90
26182;DHT22;13927;51.534;11.866;2022-09-12T17:35:59;20.60;99.90
26182;DHT22;13927;51.534;11.866;2022-09-12T17:38:27;20.50;99.90
26182;DHT22;13927;51.534;11.866;2022-09-12T17:40:52;20.40;99.90
26182;DHT22;13927;51.534;11.866;2022-09-12T17:43:18;20.30;99.90
26182;DHT22;13927;51.534;11.866;2022-09-12T17:45:44;20.10;99.90
26182;DHT22;13927;51.534;11.866;2022-09-12T17:48:22;20.00;99.90
26182;DHT22;13927;51.534;11.866;2022-09-12T17:50:48;19.90;99.90
26182;DHT22;13927;51.534;11.866;2022-09-12T17:53:15;19.80;99.90
26182;DHT22;13927;51.534;11.866;2022-09-12T17:55:41;19.70;99.90
26182;DHT22;13927;51.534;11.866;2022-09-12T17:58:07;19.60;99.90